Time;durP1;ratioP1;P1;durP2;ratioP2;P2;SDS_P1;SDS_P2;PMS_P1;PMS_P2;Temp;Humidity;BMP_temperature;BMP_pressure;BME280_temperature;BME280_humidity;BME280_pressure;Samples;Min_cycle;Max_cycle;Signal;HPM_P1;HPM_P2
2023/09/03 00:00:30;;;;;;;2.97;2.37;;;16.80;99.90;;;;;;5070322;28;20476;-66
2023/09/03 00:02:57;;;;;;;2.13;1.93;;;16.80;99.90;;;;;;5069374;28;20459;-67
2023/09/03 00:05:24;;;;;;;2.63;1.73;;;16.80;99.90;;;;;;5070268;28;20637;-66
2023/09/03 00:07:51;;;;;;;2.57;2.20;;;16.70;99.90;;;;;;5070060;28;20487;-66
2023/09/03 00:10:18;;;;;;;2.50;2.10;;;16.70;99.90;;;;;;5070074;28;20479;-66
2023/09/03 00:12:45;;;;;;;2.37;2.17;;;16.70;99.90;;;;;;5069887;28;20948;-67
2023/09/03 00:15:13;;;;;;;2.93;2.00;;;16.70;99.90;;;;;;5070037;28;20454;-66
2023/09/03 00:17:40;;;;;;;3.30;1.90;;;16.70;99.90;;;;;;5070331;28;20876;-66
2023/09/03 00:20:08;;;;;;;2.70;2.23;;;16.60;99.90;;;;;;5069493;28;20477;-67
2023/09/03 00:22:34;;;;;;;3.50;1.90;;;16.60;99.90;;;;;;5069883;28;20461;-67
2023/09/03 00:25:01;;;;;;;2.70;2.17;;;16.60;99.90;;;;;;5069931;28;20451;-67
2023/09/03 00:27:28;;;;;;;2.50;2.17;;;16.60;99.90;;;;;;5069866;28;20890;-66
2023/09/03 00:29:55;;;;;;;1.90;1.70;;;16.60;99.90;;;;;;5054477;28;20983;-67
2023/09/03 00:32:23;;;;;;;4.93;2.47;;;16.60;99.90;;;;;;5049726;28;20457;-66
2023/09/03 00:34:49;;;;;;;2.47;2.13;;;16.60;99.90;;;;;;5049933;28;20482;-67
2023/09/03 00:37:16;;;;;;;4.00;2.97;;;16.60;99.90;;;;;;5049847;28;20452;-67
2023/09/03 00:39:43;;;;;;;3.20;2.30;;;16.60;99.90;;;;;;5049754;28;20859;-68
2023/09/03 00:42:09;;;;;;;2.50;2.30;;;16.50;99.90;;;;;;5049343;28;20456;-68
2023/09/03 00:44:36;;;;;;;5.60;2.70;;;16.50;99.90;;;;;;5049866;28;20457;-68
2023/09/03 00:47:03;;;;;;;2.83;2.60;;;16.50;99.90;;;;;;5049723;28;20488;-67
2023/09/03 00:49:31;;;;;;;2.50;2.13;;;16.50;99.90;;;;;;5049570;28;20896;-67
2023/09/03 00:51:58;;;;;;;2.73;2.27;;;16.50;99.90;;;;;;5049423;28;20449;-67
2023/09/03 00:54:25;;;;;;;2.00;1.90;;;16.50;99.90;;;;;;5049601;28;20466;-67
2023/09/03 00:56:54;;;;;;;2.07;1.87;;;16.50;99.90;;;;;;5049725;28;20824;-67
2023/09/03 00:59:22;;;;;;;3.10;2.80;;;16.40;99.90;;;;;;5049427;28;20488;-67
2023/09/03 01:01:49;;;;;;;2.43;2.00;;;16.40;99.90;;;;;;5049323;28;20460;-67
2023/09/03 01:04:16;;;;;;;2.90;2.27;;;16.40;99.90;;;;;;5049597;28;20548;-67
2023/09/03 01:06:44;;;;;;;3.20;2.60;;;16.40;99.90;;;;;;5049866;28;20487;-67
2023/09/03 01:09:12;;;;;;;2.40;2.07;;;16.30;99.90;;;;;;5052042;28;20485;-67
2023/09/03 01:11:46;;;;;;;2.80;2.00;;;16.30;99.90;;;;;;5053222;28;20461;-67
2023/09/03 01:14:28;;;;;;;2.50;2.03;;;16.30;99.90;;;;;;5053066;28;20457;-67
2023/09/03 01:17:00;;;;;;;4.43;3.40;;;16.30;99.90;;;;;;5053203;28;20455;-67
2023/09/03 01:19:49;;;;;;;2.40;2.17;;;16.30;99.90;;;;;;5052844;28;20475;-67
2023/09/03 01:22:29;;;;;;;2.93;2.30;;;16.30;99.90;;;;;;5052613;28;20484;-67
2023/09/03 01:25:06;;;;;;;3.20;2.47;;;16.30;99.90;;;;;;5053017;28;20455;-66
2023/09/03 01:27:41;;;;;;;3.80;2.40;;;16.30;99.90;;;;;;5052744;28;20503;-67
2023/09/03 01:30:10;;;;;;;3.70;2.73;;;16.30;99.90;;;;;;5052667;28;20484;-67
2023/09/03 01:32:37;;;;;;;3.30;3.00;;;16.20;99.90;;;;;;5056455;28;20966;-67
2023/09/03 01:35:06;;;;;;;2.37;1.90;;;16.20;99.90;;;;;;5072725;28;20463;-67
2023/09/03 01:37:33;;;;;;;2.33;2.13;;;16.20;99.90;;;;;;5072646;28;20930;-66
2023/09/03 01:40:00;;;;;;;2.47;2.17;;;16.20;99.90;;;;;;5072321;28;20470;-67
2023/09/03 01:42:26;;;;;;;2.83;2.20;;;16.20;99.90;;;;;;5072499;28;20459;-67
2023/09/03 01:44:53;;;;;;;1.93;1.80;;;16.20;99.90;;;;;;5072719;28;20463;-67
2023/09/03 01:47:32;;;;;;;1.90;1.80;;;16.20;99.90;;;;;;5072591;28;20486;-67
2023/09/03 01:50:19;;;;;;;6.87;2.43;;;16.20;99.90;;;;;;5072506;28;20851;-67
2023/09/03 01:52:50;;;;;;;4.60;2.67;;;16.20;99.90;;;;;;5072395;28;20483;-67
2023/09/03 01:55:19;;;;;;;2.90;2.03;;;16.20;99.90;;;;;;5072566;28;20462;-67
2023/09/03 01:57:49;;;;;;;2.80;2.27;;;16.20;99.90;;;;;;5072701;28;20463;-67
2023/09/03 02:00:19;;;;;;;2.70;2.23;;;16.20;99.90;;;;;;5072322;28;21051;-67
2023/09/03 02:02:49;;;;;;;2.70;1.83;;;16.20;99.90;;;;;;5072360;28;20481;-67
2023/09/03 02:05:16;;;;;;;2.60;1.83;;;16.20;99.90;;;;;;5072333;28;20471;-67
2023/09/03 02:07:43;;;;;;;2.87;2.17;;;16.10;99.90;;;;;;5072453;28;20858;-67
2023/09/03 02:10:10;;;;;;;2.80;2.50;;;16.10;99.90;;;;;;5071976;28;20509;-67
2023/09/03 02:12:37;;;;;;;2.60;2.40;;;16.10;99.90;;;;;;5071991;28;20586;-67
2023/09/03 02:15:04;;;;;;;3.03;2.00;;;16.10;99.90;;;;;;5072219;28;20452;-67
2023/09/03 02:17:31;;;;;;;3.00;2.67;;;16.10;99.90;;;;;;5072080;28;20447;-67
2023/09/03 02:19:59;;;;;;;2.47;2.10;;;16.10;99.90;;;;;;5070739;28;20973;-67
2023/09/03 02:22:26;;;;;;;2.97;2.10;;;16.10;99.90;;;;;;5071636;28;20465;-67
2023/09/03 02:24:52;;;;;;;3.03;2.03;;;16.00;99.90;;;;;;5071689;28;20496;-67
2023/09/03 02:27:19;;;;;;;4.07;2.10;;;16.00;99.90;;;;;;5071771;28;20460;-67
2023/09/03 02:29:46;;;;;;;3.40;2.23;;;16.00;99.90;;;;;;5071553;28;20490;-67
2023/09/03 02:32:13;;;;;;;2.70;2.43;;;16.00;99.90;;;;;;5071381;28;20512;-67
2023/09/03 02:34:39;;;;;;;2.30;2.00;;;16.00;99.90;;;;;;5071478;28;20459;-67
2023/09/03 02:37:07;;;;;;;3.50;2.37;;;16.00;99.90;;;;;;5071631;28;20454;-67
2023/09/03 02:39:34;;;;;;;2.80;2.37;;;16.00;99.90;;;;;;5071200;28;20474;-67
2023/09/03 02:42:02;;;;;;;4.70;2.80;;;16.00;99.90;;;;;;5071108;28;20868;-67
2023/09/03 02:44:29;;;;;;;3.37;2.60;;;16.00;99.90;;;;;;5071410;28;20547;-67
2023/09/03 02:46:55;;;;;;;2.50;2.30;;;16.00;99.90;;;;;;5071318;28;20468;-67
2023/09/03 02:49:22;;;;;;;2.60;2.13;;;16.00;99.90;;;;;;5070842;28;20482;-67
2023/09/03 02:51:49;;;;;;;2.60;2.40;;;16.00;99.90;;;;;;5070961;28;20451;-67
2023/09/03 02:54:18;;;;;;;2.37;2.10;;;16.00;99.90;;;;;;5071290;28;20455;-66
2023/09/03 02:56:45;;;;;;;3.87;2.40;;;15.90;99.90;;;;;;5047235;28;20456;-67
2023/09/03 02:59:11;;;;;;;2.20;2.00;;;15.90;99.90;;;;;;5070863;28;20478;-67
2023/09/03 03:01:38;;;;;;;3.10;2.20;;;15.90;99.90;;;;;;5070664;28;20504;-67
2023/09/03 03:04:06;;;;;;;2.30;2.10;;;15.90;99.90;;;;;;5070806;28;20516;-67
2023/09/03 03:06:33;;;;;;;2.67;2.30;;;15.90;99.90;;;;;;5071021;28;20459;-67
2023/09/03 03:08:59;;;;;;;4.33;2.47;;;15.80;99.90;;;;;;5070634;28;21006;-67
2023/09/03 03:11:27;;;;;;;2.70;1.97;;;15.80;99.90;;;;;;5070743;28;20470;-67
2023/09/03 03:13:54;;;;;;;3.10;2.60;;;15.80;99.90;;;;;;5070314;28;20459;-67
2023/09/03 03:16:21;;;;;;;3.00;2.10;;;15.80;99.90;;;;;;5070570;28;20845;-67
2023/09/03 03:18:48;;;;;;;3.10;2.50;;;15.80;99.90;;;;;;5070461;28;20462;-67
2023/09/03 03:21:17;;;;;;;2.83;2.30;;;15.80;99.90;;;;;;5070883;28;20463;-67
2023/09/03 03:23:47;;;;;;;2.40;2.20;;;15.80;99.90;;;;;;5070166;28;20814;-67
2023/09/03 03:26:14;;;;;;;4.00;2.60;;;15.70;99.90;;;;;;5070557;28;20459;-67
2023/09/03 03:28:42;;;;;;;4.60;2.60;;;15.70;99.90;;;;;;5070023;28;20482;-67
2023/09/03 03:31:09;;;;;;;2.40;2.20;;;15.70;99.90;;;;;;5070523;28;20831;-67
2023/09/03 03:33:36;;;;;;;2.40;2.20;;;15.70;99.90;;;;;;5051375;28;20459;-67
2023/09/03 03:36:03;;;;;;;3.40;2.60;;;15.70;99.90;;;;;;5050557;28;20462;-67
2023/09/03 03:38:30;;;;;;;3.50;2.43;;;15.70;99.90;;;;;;5050253;28;20463;-66
2023/09/03 03:41:07;;;;;;;4.37;2.40;;;15.70;99.90;;;;;;5050184;28;20485;-66
2023/09/03 03:43:34;;;;;;;2.40;1.97;;;15.70;99.90;;;;;;5049811;28;20467;-66
2023/09/03 03:46:02;;;;;;;3.10;2.60;;;15.70;99.90;;;;;;5050430;28;20456;-67
2023/09/03 03:48:28;;;;;;;3.10;2.10;;;15.70;99.90;;;;;;5050726;28;20480;-66
2023/09/03 03:50:55;;;;;;;4.70;2.77;;;15.60;99.90;;;;;;5065722;28;20936;-66
2023/09/03 03:53:22;;;;;;;3.53;2.80;;;15.60;99.90;;;;;;5049989;28;20510;-67
2023/09/03 03:55:56;;;;;;;2.80;2.30;;;15.60;99.90;;;;;;5042095;28;20761;-67
2023/09/03 03:58:23;;;;;;;4.33;2.87;;;15.60;99.90;;;;;;5050021;28;20463;-66
2023/09/03 04:00:49;;;;;;;2.70;2.50;;;15.60;99.90;;;;;;5045685;28;21004;-66
2023/09/03 04:03:17;;;;;;;2.33;2.13;;;15.60;99.90;;;;;;5069672;28;20451;-66
2023/09/03 04:05:44;;;;;;;2.80;2.43;;;15.50;99.90;;;;;;5070068;28;20470;-66
2023/09/03 04:08:11;;;;;;;2.73;2.50;;;15.50;99.90;;;;;;5069866;28;20485;-66
2023/09/03 04:10:37;;;;;;;2.93;2.40;;;15.50;99.90;;;;;;5069832;28;21225;-66
2023/09/03 04:13:04;;;;;;;3.00;2.10;;;15.50;99.90;;;;;;5069457;28;20459;-66
2023/09/03 04:15:31;;;;;;;2.40;2.10;;;15.50;99.90;;;;;;5069921;28;20458;-66
2023/09/03 04:17:58;;;;;;;2.50;2.30;;;15.50;99.90;;;;;;5069774;28;20455;-66
2023/09/03 04:20:26;;;;;;;2.23;1.87;;;15.50;99.90;;;;;;5069734;28;20475;-66
2023/09/03 04:22:53;;;;;;;3.67;3.00;;;15.50;99.90;;;;;;5069523;28;20466;-66
2023/09/03 04:25:20;;;;;;;3.20;2.20;;;15.50;99.90;;;;;;5069833;28;20982;-66
2023/09/03 04:27:47;;;;;;;2.60;2.40;;;15.50;99.90;;;;;;5069612;28;20455;-66
2023/09/03 04:30:14;;;;;;;4.90;1.97;;;15.50;99.90;;;;;;5069638;28;20478;-67
2023/09/03 04:32:40;;;;;;;2.97;2.13;;;15.50;99.90;;;;;;5069309;28;20470;-66
2023/09/03 04:35:08;;;;;;;2.80;2.10;;;15.50;99.90;;;;;;5069631;28;20462;-67
2023/09/03 04:37:36;;;;;;;4.90;2.20;;;15.50;99.90;;;;;;5069706;28;20463;-67
2023/09/03 04:40:03;;;;;;;4.47;2.20;;;15.50;99.90;;;;;;5069087;28;20477;-67
2023/09/03 04:42:30;;;;;;;2.70;2.13;;;15.50;99.90;;;;;;5069615;28;20463;-67
2023/09/03 04:44:57;;;;;;;2.20;1.70;;;15.40;99.90;;;;;;5073564;28;20454;-67
2023/09/03 04:47:23;;;;;;;2.63;2.43;;;15.40;99.90;;;;;;5073592;28;20459;-67
2023/09/03 04:49:50;;;;;;;2.60;2.40;;;15.40;99.90;;;;;;5072977;28;20827;-67
2023/09/03 04:52:17;;;;;;;3.70;2.47;;;15.40;99.90;;;;;;5073397;28;20455;-67
2023/09/03 04:54:45;;;;;;;3.50;2.40;;;15.40;99.90;;;;;;5073257;28;20458;-67
2023/09/03 04:57:11;;;;;;;2.47;2.10;;;15.40;99.90;;;;;;5070646;28;20454;-67
2023/09/03 04:59:38;;;;;;;3.43;2.80;;;15.40;99.90;;;;;;5070303;28;20481;-67
2023/09/03 05:02:05;;;;;;;2.50;2.30;;;15.40;99.90;;;;;;5072829;28;20458;-67
2023/09/03 05:04:33;;;;;;;2.37;1.97;;;15.40;99.90;;;;;;5073171;28;20810;-67
2023/09/03 05:07:00;;;;;;;5.43;2.33;;;15.40;99.90;;;;;;5073290;28;20463;-67
2023/09/03 05:09:26;;;;;;;4.53;2.33;;;15.40;99.90;;;;;;5073066;28;20479;-67
2023/09/03 05:11:54;;;;;;;2.93;2.00;;;15.40;99.90;;;;;;5072838;28;20817;-67
2023/09/03 05:14:21;;;;;;;2.90;2.60;;;15.50;99.90;;;;;;5073230;28;20969;-67
2023/09/03 05:16:48;;;;;;;3.67;2.70;;;15.50;99.90;;;;;;5070554;28;20455;-67
2023/09/03 05:19:15;;;;;;;3.83;2.60;;;15.50;99.90;;;;;;5053096;28;21002;-67
2023/09/03 05:21:42;;;;;;;2.63;2.43;;;15.50;99.90;;;;;;5052946;28;20528;-67
2023/09/03 05:24:10;;;;;;;3.73;2.47;;;15.50;99.90;;;;;;5061586;28;20459;-67
2023/09/03 05:26:37;;;;;;;2.70;2.13;;;15.60;99.90;;;;;;5053056;28;20462;-67
2023/09/03 05:29:05;;;;;;;3.00;2.80;;;15.60;99.90;;;;;;5060967;28;20478;-67
2023/09/03 05:31:31;;;;;;;2.97;2.40;;;15.60;99.90;;;;;;5053081;28;20455;-67
2023/09/03 05:33:59;;;;;;;2.70;2.40;;;15.60;99.90;;;;;;5044683;28;20827;-67
2023/09/03 05:36:26;;;;;;;3.60;3.10;;;15.60;99.90;;;;;;5068803;28;20992;-67
2023/09/03 05:38:53;;;;;;;3.37;2.33;;;15.70;99.90;;;;;;5072409;28;21246;-67
2023/09/03 05:41:20;;;;;;;2.83;2.40;;;15.80;99.90;;;;;;5117967;22;20492;-94
2023/09/03 05:43:47;;;;;;;3.77;2.93;;;15.80;99.90;;;;;;5062319;28;20440;-95
2023/09/03 05:46:15;;;;;;;4.33;2.90;;;15.80;99.90;;;;;;5061164;28;20457;-95
2023/09/03 05:48:42;;;;;;;3.23;2.63;;;15.80;99.90;;;;;;5058884;28;20525;-94
2023/09/03 05:51:09;;;;;;;5.17;2.40;;;15.90;99.90;;;;;;5057748;28;20489;-94
2023/09/03 05:53:37;;;;;;;3.10;2.60;;;15.90;99.90;;;;;;5062255;28;20536;-94
2023/09/03 05:56:08;;;;;;;2.27;2.07;;;16.00;99.90;;;;;;5065795;28;20456;-95
2023/09/03 05:58:35;;;;;;;2.93;2.07;;;16.10;99.90;;;;;;5061866;28;20445;-95
2023/09/03 06:01:04;;;;;;;4.27;2.80;;;16.10;99.90;;;;;;5062816;28;20467;-94
2023/09/03 06:03:33;;;;;;;3.20;2.50;;;16.10;99.90;;;;;;5060065;28;20467;-94
2023/09/03 06:06:03;;;;;;;3.03;2.73;;;16.20;99.90;;;;;;5061763;28;20542;-94
2023/09/03 06:08:31;;;;;;;3.10;2.80;;;16.20;99.90;;;;;;5061486;28;20521;-94
2023/09/03 06:10:58;;;;;;;2.63;2.40;;;16.30;99.90;;;;;;5062798;28;20488;-93
2023/09/03 06:13:26;;;;;;;2.53;2.33;;;16.40;99.90;;;;;;5066995;28;20444;-95
2023/09/03 06:15:57;;;;;;;3.03;2.73;;;16.40;99.90;;;;;;5061540;28;20485;-94
2023/09/03 06:18:25;;;;;;;3.13;2.27;;;16.50;99.90;;;;;;5060402;28;20512;-94
2023/09/03 06:23:33;;;;;;;2.67;2.30;;;16.60;99.90;;;;;;5030046;28;20841;-66
2023/09/03 06:26:00;;;;;;;4.60;2.60;;;16.70;99.90;;;;;;5032884;28;20458;-67
2023/09/03 06:28:28;;;;;;;2.33;2.13;;;16.70;99.90;;;;;;5031423;28;20846;-67
2023/09/03 06:30:56;;;;;;;3.53;2.60;;;16.80;99.90;;;;;;5034000;28;20699;-67
2023/09/03 06:33:23;;;;;;;4.63;2.50;;;16.80;99.90;;;;;;5034288;28;20872;-67
2023/09/03 06:35:50;;;;;;;3.10;2.33;;;16.90;99.90;;;;;;5031306;28;20467;-67
2023/09/03 06:38:17;;;;;;;6.77;2.73;;;17.00;99.90;;;;;;5031467;28;20471;-67
2023/09/03 06:40:45;;;;;;;3.40;3.07;;;17.10;99.90;;;;;;5030938;28;21000;-67
2023/09/03 06:43:11;;;;;;;2.53;2.30;;;17.20;99.90;;;;;;5031282;28;20980;-67
2023/09/03 06:45:38;;;;;;;3.63;2.37;;;17.30;99.90;;;;;;5031491;28;20829;-67
2023/09/03 06:48:05;;;;;;;3.60;3.30;;;17.30;99.90;;;;;;5035238;28;20454;-66
2023/09/03 06:50:32;;;;;;;4.63;2.70;;;17.40;99.90;;;;;;5051338;28;20483;-66
2023/09/03 06:52:59;;;;;;;3.13;2.77;;;17.50;99.90;;;;;;5050948;28;20462;-67
2023/09/03 06:55:25;;;;;;;3.20;2.90;;;17.50;99.90;;;;;;5051621;28;20464;-67
2023/09/03 06:57:53;;;;;;;3.30;2.97;;;17.70;99.90;;;;;;5050943;28;20462;-66
2023/09/03 07:00:20;;;;;;;3.80;3.40;;;17.70;99.90;;;;;;5051295;28;20835;-67
2023/09/03 07:02:47;;;;;;;3.20;2.53;;;17.80;99.90;;;;;;5050705;28;20465;-67
2023/09/03 07:05:14;;;;;;;3.87;3.47;;;17.90;99.90;;;;;;5050936;28;20459;-67
2023/09/03 07:07:41;;;;;;;4.20;3.00;;;18.00;99.90;;;;;;5051044;28;20460;-67
2023/09/03 07:10:08;;;;;;;5.87;3.30;;;18.00;99.90;;;;;;5050870;28;20493;-67
2023/09/03 07:12:35;;;;;;;2.87;2.67;;;18.10;99.90;;;;;;5044386;28;20808;-67
2023/09/03 07:15:05;;;;;;;3.50;2.83;;;18.20;99.90;;;;;;5049560;28;20549;-67
2023/09/03 07:17:31;;;;;;;3.70;3.40;;;18.30;99.90;;;;;;5031435;28;20463;-67
2023/09/03 07:19:58;;;;;;;4.03;3.70;;;18.30;99.90;;;;;;5030039;28;20580;-67
2023/09/03 07:22:25;;;;;;;3.97;3.57;;;18.40;99.90;;;;;;5029109;28;20475;-66
2023/09/03 07:24:52;;;;;;;4.23;3.20;;;18.50;99.90;;;;;;5029942;28;20534;-67
2023/09/03 07:27:19;;;;;;;3.53;3.20;;;18.50;99.90;;;;;;5030213;28;20520;-67
2023/09/03 07:29:46;;;;;;;3.90;3.13;;;18.60;99.90;;;;;;5025321;28;20510;-67
2023/09/03 07:32:14;;;;;;;3.77;3.40;;;18.60;99.90;;;;;;5022097;28;20470;-67
2023/09/03 07:34:43;;;;;;;4.70;3.33;;;18.70;99.90;;;;;;5029679;28;20466;-67
2023/09/03 07:37:09;;;;;;;4.10;3.43;;;18.80;99.90;;;;;;5022018;28;20464;-67
2023/09/03 07:39:36;;;;;;;3.37;2.97;;;18.80;99.90;;;;;;5029546;28;20475;-68
2023/09/03 07:42:03;;;;;;;4.10;3.37;;;18.90;99.90;;;;;;5029161;28;20459;-67
2023/09/03 07:44:29;;;;;;;5.33;3.13;;;19.00;99.90;;;;;;5030800;28;20842;-67
2023/09/03 07:46:57;;;;;;;3.60;3.30;;;19.00;99.90;;;;;;5029273;28;20459;-67
2023/09/03 07:49:25;;;;;;;3.20;2.90;;;19.10;99.90;;;;;;5029420;28;20607;-67
2023/09/03 07:51:52;;;;;;;4.60;3.73;;;19.20;99.90;;;;;;5029970;28;20951;-67
2023/09/03 07:54:19;;;;;;;3.80;3.20;;;19.30;99.90;;;;;;5028949;28;20500;-67
2023/09/03 07:56:46;;;;;;;3.20;2.90;;;19.30;99.90;;;;;;5029362;28;20492;-67
2023/09/03 07:59:12;;;;;;;6.20;3.80;;;19.40;99.90;;;;;;5021226;28;20473;-67
2023/09/03 08:01:39;;;;;;;4.40;3.53;;;19.60;99.90;;;;;;5029110;28;20953;-67
2023/09/03 08:04:06;;;;;;;5.73;4.10;;;19.70;99.90;;;;;;5030380;28;20646;-67
2023/09/03 08:06:34;;;;;;;4.20;3.80;;;19.70;99.90;;;;;;5029763;28;20461;-67
2023/09/03 08:09:02;;;;;;;4.40;3.80;;;19.90;99.90;;;;;;5031016;28;20492;-68
2023/09/03 08:11:29;;;;;;;4.13;3.30;;;20.00;99.90;;;;;;5035480;28;20457;-67
2023/09/03 08:13:58;;;;;;;4.23;3.50;;;20.10;99.90;;;;;;5037545;28;20472;-68
2023/09/03 08:16:25;;;;;;;5.47;4.27;;;20.20;99.90;;;;;;5029621;28;21378;-67
2023/09/03 08:18:52;;;;;;;4.00;3.30;;;20.30;99.90;;;;;;5028462;28;20472;-67
2023/09/03 08:21:19;;;;;;;3.27;2.97;;;20.50;99.90;;;;;;5041158;28;20452;-67
2023/09/03 08:23:47;;;;;;;3.50;2.90;;;20.60;99.90;;;;;;5032705;28;20457;-67
2023/09/03 08:26:13;;;;;;;3.17;2.43;;;20.90;99.90;;;;;;5029344;28;20451;-67
2023/09/03 08:28:40;;;;;;;2.70;2.50;;;21.00;99.90;;;;;;5037122;28;20460;-67
2023/09/03 08:31:07;;;;;;;2.97;2.70;;;21.10;99.90;;;;;;5037471;28;20489;-66
2023/09/03 08:33:34;;;;;;;3.20;2.90;;;21.20;99.90;;;;;;5028912;28;21150;-67
2023/09/03 08:36:01;;;;;;;2.40;2.20;;;21.20;99.90;;;;;;5029271;28;20958;-67
2023/09/03 08:38:28;;;;;;;2.60;2.40;;;21.30;99.90;;;;;;5029291;28;20467;-69
2023/09/03 08:40:56;;;;;;;2.60;2.40;;;21.40;99.90;;;;;;5028783;28;20488;-66
2023/09/03 08:43:26;;;;;;;3.03;2.40;;;21.50;99.90;;;;;;5024266;28;20835;-66
2023/09/03 08:45:56;;;;;;;2.30;2.10;;;21.60;99.90;;;;;;5024168;28;20470;-66
2023/09/03 08:48:24;;;;;;;2.57;2.37;;;21.80;99.90;;;;;;5028756;28;20825;-66
2023/09/03 08:50:51;;;;;;;2.67;2.47;;;21.90;99.90;;;;;;5028910;28;20492;-66
2023/09/03 08:53:18;;;;;;;2.70;2.50;;;22.00;99.90;;;;;;5021059;28;20462;-66
2023/09/03 08:55:45;;;;;;;2.60;2.40;;;22.10;99.90;;;;;;5028941;28;20470;-67
2023/09/03 08:58:15;;;;;;;2.50;2.30;;;22.10;99.90;;;;;;5028849;28;20470;-66
2023/09/03 09:00:42;;;;;;;2.63;2.40;;;22.20;99.90;;;;;;5024448;28;21000;-67
2023/09/03 09:03:11;;;;;;;2.47;2.27;;;22.30;99.90;;;;;;5035135;28;20467;-67
2023/09/03 09:05:41;;;;;;;2.60;2.40;;;22.30;99.90;;;;;;5034356;28;21049;-67
2023/09/03 09:08:08;;;;;;;2.70;2.50;;;22.40;99.90;;;;;;5043540;28;20468;-66
2023/09/03 09:10:40;;;;;;;2.50;2.30;;;22.60;99.90;;;;;;5035096;28;20487;-66
2023/09/03 09:13:11;;;;;;;2.40;2.20;;;22.60;99.90;;;;;;5030222;28;20460;-67
2023/09/03 09:15:42;;;;;;;2.43;2.23;;;22.80;99.90;;;;;;5045123;28;20456;-66
2023/09/03 09:18:09;;;;;;;2.10;2.00;;;22.90;99.90;;;;;;5034903;28;20474;-67
2023/09/03 09:20:38;;;;;;;3.67;2.50;;;23.00;99.90;;;;;;5041558;28;20474;-66
2023/09/03 09:23:07;;;;;;;1.80;1.70;;;23.10;99.90;;;;;;5036873;28;20495;-66
2023/09/03 09:25:34;;;;;;;2.10;1.90;;;23.20;99.90;;;;;;5027469;28;20551;-66
2023/09/03 09:28:10;;;;;;;2.00;1.80;;;23.20;99.90;;;;;;5035560;28;20459;-66
2023/09/03 09:30:51;;;;;;;2.90;2.00;;;23.20;99.90;;;;;;5037310;28;20487;-66
2023/09/03 09:33:18;;;;;;;1.90;1.60;;;23.30;99.90;;;;;;5031980;28;20468;-66
2023/09/03 09:35:45;;;;;;;2.67;1.77;;;23.40;99.90;;;;;;5040694;28;20463;-66
2023/09/03 09:38:11;;;;;;;1.97;1.80;;;23.50;99.90;;;;;;5031942;28;20824;-67
2023/09/03 09:40:38;;;;;;;2.23;2.00;;;23.60;99.90;;;;;;5037299;28;20479;-66
2023/09/03 09:43:07;;;;;;;2.00;1.87;;;23.70;99.90;;;;;;5026611;28;20459;-66
2023/09/03 09:45:45;;;;;;;2.10;1.90;;;23.80;99.90;;;;;;5017794;28;20463;-66
2023/09/03 09:48:13;;;;;;;2.90;2.03;;;23.90;99.90;;;;;;5032594;28;20452;-65
2023/09/03 09:50:41;;;;;;;3.77;1.87;;;23.90;99.90;;;;;;5032578;28;20511;-66
2023/09/03 09:53:21;;;;;;;1.73;1.60;;;24.00;99.90;;;;;;5032297;28;20854;-65
2023/09/03 09:55:48;;;;;;;1.90;1.70;;;24.10;99.90;;;;;;5032797;28;20464;-66
2023/09/03 09:58:15;;;;;;;1.53;1.43;;;24.10;99.90;;;;;;5032495;28;20461;-66
2023/09/03 10:00:42;;;;;;;1.70;1.50;;;24.10;99.90;;;;;;5028413;28;20483;-66
2023/09/03 10:03:11;;;;;;;2.00;1.80;;;24.10;99.90;;;;;;5018440;28;20471;-66
2023/09/03 10:05:48;;;;;;;1.73;1.63;;;24.20;99.90;;;;;;5024787;28;20520;-66
2023/09/03 10:08:16;;;;;;;2.43;2.03;;;24.30;99.90;;;;;;5025709;28;20530;-66
2023/09/03 10:10:43;;;;;;;2.40;1.90;;;24.30;99.90;;;;;;5027081;28;20490;-66
2023/09/03 10:13:10;;;;;;;2.43;2.23;;;24.30;99.90;;;;;;5017918;28;20511;-66
2023/09/03 10:15:40;;;;;;;3.10;2.57;;;24.30;99.90;;;;;;5019852;28;20466;-66
2023/09/03 10:18:09;;;;;;;2.33;2.00;;;24.30;99.90;;;;;;5015488;28;20477;-66
2023/09/03 10:20:37;;;;;;;2.40;2.10;;;24.30;99.90;;;;;;5015593;28;20488;-66
2023/09/03 10:23:05;;;;;;;2.50;1.97;;;24.50;99.90;;;;;;5018196;28;20817;-66
2023/09/03 10:25:34;;;;;;;4.70;2.43;;;24.60;99.90;;;;;;5019470;28;20549;-65
2023/09/03 10:28:05;;;;;;;4.40;1.80;;;24.70;99.90;;;;;;5023644;28;21243;-66
2023/09/03 10:30:37;;;;;;;2.13;1.93;;;24.80;99.90;;;;;;5018471;28;20488;-65
2023/09/03 10:33:07;;;;;;;3.83;1.90;;;24.90;99.90;;;;;;5026646;28;20975;-66
2023/09/03 10:35:33;;;;;;;1.50;1.40;;;24.90;99.90;;;;;;5027591;28;20460;-66
2023/09/03 10:38:00;;;;;;;1.23;1.13;;;24.90;99.90;;;;;;5029100;28;20457;-66
2023/09/03 10:40:29;;;;;;;1.93;1.30;;;25.00;99.90;;;;;;5027183;28;20836;-66
2023/09/03 10:43:24;;;;;;;3.07;1.33;;;25.00;99.90;;;;;;5022002;28;20523;-66
2023/09/03 10:46:04;;;;;;;1.50;1.40;;;25.00;99.90;;;;;;5015304;28;20472;-66
2023/09/03 10:48:31;;;;;;;1.67;1.37;;;25.20;99.90;;;;;;5017342;28;20464;-66
2023/09/03 10:50:58;;;;;;;2.27;1.60;;;25.30;99.90;;;;;;5016555;28;21064;-66
2023/09/03 10:53:35;;;;;;;2.00;1.70;;;25.40;99.90;;;;;;5013943;28;20472;-66
2023/09/03 10:56:11;;;;;;;1.80;1.20;;;25.40;99.90;;;;;;5021825;28;20468;-66
2023/09/03 10:58:54;;;;;;;1.50;1.30;;;25.50;99.90;;;;;;5013082;28;20967;-67
2023/09/03 11:01:22;;;;;;;1.50;1.40;;;25.50;99.90;;;;;;5021228;28;20452;-67
2023/09/03 11:03:52;;;;;;;1.63;1.53;;;25.60;99.90;;;;;;5024278;28;20459;-67
2023/09/03 11:06:21;;;;;;;1.53;1.20;;;25.70;99.90;;;;;;5023095;28;20840;-67
2023/09/03 11:08:48;;;;;;;1.43;1.20;;;25.60;99.90;;;;;;5025798;28;20959;-66
2023/09/03 11:11:22;;;;;;;1.50;1.40;;;25.60;99.90;;;;;;5023564;28;20504;-67
2023/09/03 11:13:53;;;;;;;1.57;1.40;;;25.70;99.90;;;;;;5011638;28;20533;-66
2023/09/03 11:16:26;;;;;;;1.57;1.20;;;25.80;99.90;;;;;;5016008;28;20462;-66
2023/09/03 11:18:53;;;;;;;1.60;1.50;;;25.90;99.90;;;;;;5011493;28;20473;-66
2023/09/03 11:21:20;;;;;;;1.83;1.33;;;26.00;99.90;;;;;;5014889;28;20461;-66
2023/09/03 11:24:00;;;;;;;1.50;1.40;;;26.10;99.90;;;;;;5017608;28;20955;-65
2023/09/03 11:26:28;;;;;;;1.30;1.20;;;26.10;99.90;;;;;;5012465;28;20912;-66
2023/09/03 11:28:54;;;;;;;1.50;1.30;;;26.10;99.90;;;;;;5011068;28;20953;-66
2023/09/03 11:31:21;;;;;;;1.60;1.50;;;26.00;99.90;;;;;;5012237;28;20488;-66
2023/09/03 11:33:48;;;;;;;1.40;1.30;;;26.00;99.90;;;;;;5017888;28;20461;-66
2023/09/03 11:36:15;;;;;;;1.77;1.47;;;26.10;99.90;;;;;;5019073;28;20476;-66
2023/09/03 11:38:42;;;;;;;1.50;1.40;;;26.10;99.90;;;;;;5018753;28;20477;-66
2023/09/03 11:41:09;;;;;;;1.50;1.30;;;26.20;99.90;;;;;;5011260;28;20462;-66
2023/09/03 11:43:39;;;;;;;1.40;1.20;;;26.30;99.90;;;;;;5009938;28;20463;-65
2023/09/03 11:46:15;;;;;;;1.57;1.30;;;26.30;99.90;;;;;;5025595;28;20495;-66
2023/09/03 11:48:43;;;;;;;1.40;1.30;;;26.30;99.90;;;;;;5009470;28;20968;-66
2023/09/03 11:51:09;;;;;;;1.73;1.53;;;26.40;99.90;;;;;;5026849;28;20495;-66
2023/09/03 11:53:41;;;;;;;1.57;1.30;;;26.30;99.90;;;;;;5027785;28;20563;-65
2023/09/03 11:56:10;;;;;;;1.50;1.40;;;26.20;99.90;;;;;;5029449;28;20978;-66
2023/09/03 11:58:39;;;;;;;1.47;1.37;;;26.20;99.90;;;;;;5018046;28;20458;-66
2023/09/03 12:01:07;;;;;;;1.30;1.20;;;26.20;99.90;;;;;;5025752;28;20468;-67
2023/09/03 12:03:34;;;;;;;1.50;1.40;;;26.30;99.90;;;;;;5018839;28;20457;-66
2023/09/03 12:06:03;;;;;;;1.70;1.50;;;26.30;99.90;;;;;;5028466;28;20551;-66
2023/09/03 12:08:31;;;;;;;1.90;1.60;;;26.30;99.90;;;;;;5018280;28;20467;-66
2023/09/03 12:10:58;;;;;;;1.57;1.47;;;26.40;99.90;;;;;;5024274;28;20497;-66
2023/09/03 12:13:32;;;;;;;1.73;1.60;;;26.60;99.90;;;;;;5016540;28;20835;-66
2023/09/03 12:16:07;;;;;;;1.40;1.30;;;26.80;99.90;;;;;;5027396;28;21213;-66
2023/09/03 12:18:35;;;;;;;2.13;1.53;;;26.90;99.90;;;;;;5017330;28;20460;-66
2023/09/03 12:21:02;;;;;;;1.90;1.47;;;27.00;99.90;;;;;;5023651;28;20481;-66
2023/09/03 12:23:29;;;;;;;1.83;1.50;;;26.90;99.90;;;;;;5015825;28;21079;-66
2023/09/03 12:25:56;;;;;;;1.83;1.40;;;26.70;99.90;;;;;;5026550;28;20484;-66
2023/09/03 12:28:34;;;;;;;1.37;1.27;;;26.60;99.90;;;;;;5020051;28;20465;-66
2023/09/03 12:31:04;;;;;;;1.97;1.10;;;26.40;99.90;;;;;;5030466;28;20496;-66
2023/09/03 12:33:48;;;;;;;1.40;1.30;;;26.20;99.90;;;;;;5020796;28;20465;-66
2023/09/03 12:36:16;;;;;;;1.40;1.17;;;26.00;99.90;;;;;;5023848;28;20464;-66
2023/09/03 12:38:54;;;;;;;1.77;1.67;;;25.90;99.90;;;;;;5018746;28;20514;-65
2023/09/03 12:41:21;;;;;;;1.63;1.53;;;26.00;99.90;;;;;;5024651;28;20481;-66
2023/09/03 12:43:47;;;;;;;1.80;1.53;;;26.00;99.90;;;;;;5024841;28;20465;-66
2023/09/03 12:46:16;;;;;;;1.57;1.40;;;26.30;99.90;;;;;;5024989;28;20461;-66
2023/09/03 12:48:43;;;;;;;1.73;1.63;;;26.50;99.90;;;;;;5016500;28;20464;-66
2023/09/03 12:51:10;;;;;;;1.63;1.53;;;26.60;99.90;;;;;;5020046;28;20993;-66
2023/09/03 12:53:37;;;;;;;1.50;1.40;;;26.80;99.90;;;;;;5014484;28;20519;-65
2023/09/03 12:56:04;;;;;;;1.73;1.50;;;26.90;99.90;;;;;;5023882;28;20462;-66